sensor_id;sensor_type;location;lat;lon;timestamp;P1;durP1;ratioP1;P2;durP2;ratioP2
6207;SDS011;3137;51.550;7.060;2023-08-31T00:01:12;10.80;;;6.20;;
6207;SDS011;3137;51.550;7.060;2023-08-31T00:03:40;7.63;;;5.27;;
6207;SDS011;3137;51.550;7.060;2023-08-31T00:06:06;5.63;;;5.30;;
6207;SDS011;3137;51.550;7.060;2023-08-31T00:08:34;9.00;;;6.37;;
6207;SDS011;3137;51.550;7.060;2023-08-31T00:11:01;9.83;;;5.73;;
6207;SDS011;3137;51.550;7.060;2023-08-31T00:13:27;6.00;;;5.57;;
6207;SDS011;3137;51.550;7.060;2023-08-31T00:15:55;6.53;;;5.57;;
6207;SDS011;3137;51.550;7.060;2023-08-31T00:18:26;13.87;;;4.87;;
6207;SDS011;3137;51.550;7.060;2023-08-31T00:20:52;5.87;;;5.47;;
6207;SDS011;3137;51.550;7.060;2023-08-31T00:23:19;10.03;;;5.00;;
6207;SDS011;3137;51.550;7.060;2023-08-31T00:25:46;7.30;;;5.37;;
6207;SDS011;3137;51.550;7.060;2023-08-31T00:28:14;10.23;;;5.33;;
6207;SDS011;3137;51.550;7.060;2023-08-31T00:30:42;6.47;;;5.00;;
6207;SDS011;3137;51.550;7.060;2023-08-31T00:33:08;5.80;;;4.70;;
6207;SDS011;3137;51.550;7.060;2023-08-31T00:35:35;8.47;;;5.17;;
6207;SDS011;3137;51.550;7.060;2023-08-31T00:38:02;6.07;;;5.57;;
6207;SDS011;3137;51.550;7.060;2023-08-31T00:40:30;6.93;;;6.23;;
6207;SDS011;3137;51.550;7.060;2023-08-31T00:42:57;5.77;;;5.37;;
6207;SDS011;3137;51.550;7.060;2023-08-31T00:45:24;14.67;;;5.53;;
6207;SDS011;3137;51.550;7.060;2023-08-31T00:47:50;9.67;;;6.13;;
6207;SDS011;3137;51.550;7.060;2023-08-31T00:50:17;9.93;;;5.63;;
6207;SDS011;3137;51.550;7.060;2023-08-31T00:52:45;7.13;;;5.30;;
6207;SDS011;3137;51.550;7.060;2023-08-31T00:55:11;5.70;;;5.33;;
6207;SDS011;3137;51.550;7.060;2023-08-31T00:57:38;14.80;;;5.93;;
6207;SDS011;3137;51.550;7.060;2023-08-31T01:00:07;8.93;;;6.37;;
6207;SDS011;3137;51.550;7.060;2023-08-31T01:02:37;7.50;;;5.67;;
6207;SDS011;3137;51.550;7.060;2023-08-31T01:05:29;10.43;;;6.53;;
6207;SDS011;3137;51.550;7.060;2023-08-31T01:11:13;7.87;;;6.13;;
6207;SDS011;3137;51.550;7.060;2023-08-31T01:13:57;12.93;;;5.90;;
6207;SDS011;3137;51.550;7.060;2023-08-31T01:16:30;11.67;;;5.50;;
6207;SDS011;3137;51.550;7.060;2023-08-31T01:19:02;16.03;;;6.03;;
6207;SDS011;3137;51.550;7.060;2023-08-31T01:21:37;9.23;;;5.90;;
6207;SDS011;3137;51.550;7.060;2023-08-31T01:24:06;5.43;;;5.10;;
6207;SDS011;3137;51.550;7.060;2023-08-31T01:26:34;5.83;;;5.43;;
6207;SDS011;3137;51.550;7.060;2023-08-31T01:29:01;6.53;;;5.97;;
6207;SDS011;3137;51.550;7.060;2023-08-31T01:31:28;5.40;;;5.10;;
6207;SDS011;3137;51.550;7.060;2023-08-31T01:33:55;6.93;;;5.50;;
6207;SDS011;3137;51.550;7.060;2023-08-31T01:36:28;6.07;;;5.50;;
6207;SDS011;3137;51.550;7.060;2023-08-31T01:38:58;6.43;;;5.50;;
6207;SDS011;3137;51.550;7.060;2023-08-31T01:41:36;7.40;;;5.23;;
6207;SDS011;3137;51.550;7.060;2023-08-31T01:44:06;5.37;;;5.20;;
6207;SDS011;3137;51.550;7.060;2023-08-31T01:46:40;5.70;;;5.20;;
6207;SDS011;3137;51.550;7.060;2023-08-31T01:49:07;6.00;;;5.80;;
6207;SDS011;3137;51.550;7.060;2023-08-31T01:51:36;5.77;;;5.37;;
6207;SDS011;3137;51.550;7.060;2023-08-31T01:54:02;7.10;;;6.10;;
6207;SDS011;3137;51.550;7.060;2023-08-31T01:56:29;6.17;;;5.80;;
6207;SDS011;3137;51.550;7.060;2023-08-31T01:58:55;6.97;;;5.83;;
6207;SDS011;3137;51.550;7.060;2023-08-31T02:01:22;11.33;;;7.27;;
6207;SDS011;3137;51.550;7.060;2023-08-31T02:03:49;9.87;;;5.60;;
6207;SDS011;3137;51.550;7.060;2023-08-31T02:06:15;6.43;;;5.97;;
6207;SDS011;3137;51.550;7.060;2023-08-31T02:08:41;8.07;;;6.00;;
6207;SDS011;3137;51.550;7.060;2023-08-31T02:11:10;6.80;;;6.37;;
6207;SDS011;3137;51.550;7.060;2023-08-31T02:13:36;5.90;;;5.53;;
6207;SDS011;3137;51.550;7.060;2023-08-31T02:16:03;6.83;;;6.13;;
6207;SDS011;3137;51.550;7.060;2023-08-31T02:18:30;6.30;;;6.00;;
6207;SDS011;3137;51.550;7.060;2023-08-31T02:20:56;13.43;;;6.40;;
6207;SDS011;3137;51.550;7.060;2023-08-31T02:23:23;11.87;;;6.70;;
6207;SDS011;3137;51.550;7.060;2023-08-31T02:25:50;6.60;;;5.80;;
6207;SDS011;3137;51.550;7.060;2023-08-31T02:28:16;8.27;;;6.50;;
6207;SDS011;3137;51.550;7.060;2023-08-31T02:30:45;7.20;;;6.60;;
6207;SDS011;3137;51.550;7.060;2023-08-31T02:33:12;6.90;;;6.50;;
6207;SDS011;3137;51.550;7.060;2023-08-31T02:35:39;7.63;;;6.93;;
6207;SDS011;3137;51.550;7.060;2023-08-31T02:38:06;10.50;;;9.37;;
6207;SDS011;3137;51.550;7.060;2023-08-31T02:40:32;8.50;;;7.60;;
6207;SDS011;3137;51.550;7.060;2023-08-31T02:43:00;8.23;;;7.73;;
6207;SDS011;3137;51.550;7.060;2023-08-31T02:45:26;17.67;;;8.33;;
6207;SDS011;3137;51.550;7.060;2023-08-31T02:47:53;13.80;;;8.33;;
6207;SDS011;3137;51.550;7.060;2023-08-31T02:50:19;8.70;;;7.90;;
6207;SDS011;3137;51.550;7.060;2023-08-31T02:52:46;7.63;;;6.97;;
6207;SDS011;3137;51.550;7.060;2023-08-31T02:55:12;8.97;;;8.10;;
6207;SDS011;3137;51.550;7.060;2023-08-31T02:57:39;8.97;;;8.07;;
6207;SDS011;3137;51.550;7.060;2023-08-31T03:00:05;8.33;;;7.73;;
6207;SDS011;3137;51.550;7.060;2023-08-31T03:02:35;8.83;;;8.33;;
6207;SDS011;3137;51.550;7.060;2023-08-31T03:05:02;9.83;;;8.80;;
6207;SDS011;3137;51.550;7.060;2023-08-31T03:07:29;14.17;;;9.27;;
6207;SDS011;3137;51.550;7.060;2023-08-31T03:09:56;11.93;;;9.17;;
6207;SDS011;3137;51.550;7.060;2023-08-31T03:12:22;11.27;;;9.53;;
6207;SDS011;3137;51.550;7.060;2023-08-31T03:14:48;10.77;;;10.03;;
6207;SDS011;3137;51.550;7.060;2023-08-31T03:17:16;9.53;;;8.73;;
6207;SDS011;3137;51.550;7.060;2023-08-31T03:19:43;13.47;;;9.03;;
6207;SDS011;3137;51.550;7.060;2023-08-31T03:22:10;14.73;;;9.60;;
6207;SDS011;3137;51.550;7.060;2023-08-31T03:24:37;10.50;;;9.77;;
6207;SDS011;3137;51.550;7.060;2023-08-31T03:27:03;13.17;;;10.77;;
6207;SDS011;3137;51.550;7.060;2023-08-31T03:29:30;15.97;;;9.63;;
6207;SDS011;3137;51.550;7.060;2023-08-31T03:31:59;11.33;;;10.40;;
6207;SDS011;3137;51.550;7.060;2023-08-31T03:34:29;10.80;;;9.90;;
6207;SDS011;3137;51.550;7.060;2023-08-31T03:36:57;16.43;;;11.27;;
6207;SDS011;3137;51.550;7.060;2023-08-31T03:39:25;10.40;;;9.63;;
6207;SDS011;3137;51.550;7.060;2023-08-31T03:41:52;18.87;;;11.63;;
6207;SDS011;3137;51.550;7.060;2023-08-31T03:44:19;12.80;;;10.97;;
6207;SDS011;3137;51.550;7.060;2023-08-31T03:46:48;12.77;;;11.17;;
6207;SDS011;3137;51.550;7.060;2023-08-31T03:49:15;10.87;;;10.00;;
6207;SDS011;3137;51.550;7.060;2023-08-31T03:51:41;14.97;;;11.10;;
6207;SDS011;3137;51.550;7.060;2023-08-31T03:54:08;15.13;;;12.10;;
6207;SDS011;3137;51.550;7.060;2023-08-31T03:56:34;13.13;;;11.77;;
6207;SDS011;3137;51.550;7.060;2023-08-31T03:59:01;19.10;;;14.40;;
6207;SDS011;3137;51.550;7.060;2023-08-31T04:01:30;17.43;;;12.10;;
6207;SDS011;3137;51.550;7.060;2023-08-31T04:03:57;14.20;;;12.30;;
6207;SDS011;3137;51.550;7.060;2023-08-31T04:06:23;15.63;;;12.80;;
6207;SDS011;3137;51.550;7.060;2023-08-31T04:08:49;20.60;;;12.73;;
6207;SDS011;3137;51.550;7.060;2023-08-31T04:11:17;14.13;;;12.70;;
6207;SDS011;3137;51.550;7.060;2023-08-31T04:13:43;17.83;;;13.80;;
6207;SDS011;3137;51.550;7.060;2023-08-31T04:16:09;17.90;;;13.57;;
6207;SDS011;3137;51.550;7.060;2023-08-31T04:18:36;13.73;;;12.13;;
6207;SDS011;3137;51.550;7.060;2023-08-31T04:21:03;14.07;;;10.70;;
6207;SDS011;3137;51.550;7.060;2023-08-31T04:23:29;12.00;;;10.70;;
6207;SDS011;3137;51.550;7.060;2023-08-31T04:25:56;11.90;;;10.10;;
6207;SDS011;3137;51.550;7.060;2023-08-31T04:28:23;15.40;;;11.03;;
6207;SDS011;3137;51.550;7.060;2023-08-31T04:30:50;14.27;;;11.27;;
6207;SDS011;3137;51.550;7.060;2023-08-31T04:33:17;23.30;;;12.40;;
6207;SDS011;3137;51.550;7.060;2023-08-31T04:35:44;13.77;;;12.57;;
6207;SDS011;3137;51.550;7.060;2023-08-31T04:38:10;12.63;;;11.60;;
6207;SDS011;3137;51.550;7.060;2023-08-31T04:40:37;16.10;;;12.57;;
6207;SDS011;3137;51.550;7.060;2023-08-31T04:43:03;14.03;;;12.63;;
6207;SDS011;3137;51.550;7.060;2023-08-31T04:45:30;24.73;;;13.40;;
6207;SDS011;3137;51.550;7.060;2023-08-31T04:47:57;16.03;;;10.27;;
6207;SDS011;3137;51.550;7.060;2023-08-31T04:50:23;11.87;;;10.97;;
6207;SDS011;3137;51.550;7.060;2023-08-31T04:52:49;16.47;;;10.67;;
6207;SDS011;3137;51.550;7.060;2023-08-31T04:55:16;13.27;;;11.93;;
6207;SDS011;3137;51.550;7.060;2023-08-31T04:57:42;14.00;;;12.80;;
6207;SDS011;3137;51.550;7.060;2023-08-31T05:00:09;16.03;;;12.03;;
6207;SDS011;3137;51.550;7.060;2023-08-31T05:02:35;12.07;;;10.77;;
6207;SDS011;3137;51.550;7.060;2023-08-31T05:05:03;11.47;;;10.57;;
6207;SDS011;3137;51.550;7.060;2023-08-31T05:07:30;11.37;;;10.60;;
6207;SDS011;3137;51.550;7.060;2023-08-31T05:09:56;18.70;;;11.13;;
6207;SDS011;3137;51.550;7.060;2023-08-31T05:12:23;12.10;;;11.07;;
6207;SDS011;3137;51.550;7.060;2023-08-31T05:14:49;12.50;;;11.37;;
6207;SDS011;3137;51.550;7.060;2023-08-31T05:17:16;13.90;;;11.23;;
6207;SDS011;3137;51.550;7.060;2023-08-31T05:19:42;9.63;;;9.03;;
6207;SDS011;3137;51.550;7.060;2023-08-31T05:22:09;16.83;;;9.37;;
6207;SDS011;3137;51.550;7.060;2023-08-31T05:24:35;8.37;;;7.87;;
6207;SDS011;3137;51.550;7.060;2023-08-31T05:27:01;9.57;;;8.87;;
6207;SDS011;3137;51.550;7.060;2023-08-31T05:29:29;12.67;;;11.37;;
6207;SDS011;3137;51.550;7.060;2023-08-31T05:31:55;11.00;;;10.07;;
6207;SDS011;3137;51.550;7.060;2023-08-31T05:34:22;19.37;;;11.23;;
6207;SDS011;3137;51.550;7.060;2023-08-31T05:36:49;12.17;;;10.97;;
6207;SDS011;3137;51.550;7.060;2023-08-31T05:39:15;11.40;;;10.50;;
6207;SDS011;3137;51.550;7.060;2023-08-31T05:41:43;14.67;;;9.50;;
6207;SDS011;3137;51.550;7.060;2023-08-31T05:44:09;11.53;;;10.43;;
6207;SDS011;3137;51.550;7.060;2023-08-31T05:46:36;19.20;;;12.80;;
6207;SDS011;3137;51.550;7.060;2023-08-31T05:49:04;15.10;;;13.53;;
6207;SDS011;3137;51.550;7.060;2023-08-31T05:51:31;14.13;;;12.70;;
6207;SDS011;3137;51.550;7.060;2023-08-31T05:53:57;13.50;;;12.27;;
6207;SDS011;3137;51.550;7.060;2023-08-31T05:56:23;15.63;;;12.67;;
6207;SDS011;3137;51.550;7.060;2023-08-31T05:58:50;17.30;;;13.20;;
6207;SDS011;3137;51.550;7.060;2023-08-31T06:01:17;15.03;;;12.50;;
6207;SDS011;3137;51.550;7.060;2023-08-31T06:03:43;17.13;;;11.87;;
6207;SDS011;3137;51.550;7.060;2023-08-31T06:06:10;15.53;;;12.43;;
6207;SDS011;3137;51.550;7.060;2023-08-31T06:08:36;17.87;;;12.07;;
6207;SDS011;3137;51.550;7.060;2023-08-31T06:11:02;16.17;;;12.43;;
6207;SDS011;3137;51.550;7.060;2023-08-31T06:13:29;15.77;;;13.10;;
6207;SDS011;3137;51.550;7.060;2023-08-31T06:15:55;13.70;;;12.53;;
6207;SDS011;3137;51.550;7.060;2023-08-31T06:18:24;14.93;;;12.73;;
6207;SDS011;3137;51.550;7.060;2023-08-31T06:20:50;15.10;;;12.70;;
6207;SDS011;3137;51.550;7.060;2023-08-31T06:23:17;16.80;;;13.33;;
6207;SDS011;3137;51.550;7.060;2023-08-31T06:25:43;25.33;;;13.33;;
6207;SDS011;3137;51.550;7.060;2023-08-31T06:28:12;15.60;;;13.70;;
6207;SDS011;3137;51.550;7.060;2023-08-31T06:30:38;13.43;;;12.23;;
6207;SDS011;3137;51.550;7.060;2023-08-31T06:33:05;12.80;;;11.83;;
6207;SDS011;3137;51.550;7.060;2023-08-31T06:35:31;12.97;;;11.60;;
6207;SDS011;3137;51.550;7.060;2023-08-31T06:37:57;13.23;;;11.90;;
6207;SDS011;3137;51.550;7.060;2023-08-31T06:40:24;12.53;;;11.40;;
6207;SDS011;3137;51.550;7.060;2023-08-31T06:42:51;13.83;;;11.97;;
6207;SDS011;3137;51.550;7.060;2023-08-31T06:45:17;12.90;;;11.50;;
6207;SDS011;3137;51.550;7.060;2023-08-31T06:47:44;12.10;;;10.70;;
6207;SDS011;3137;51.550;7.060;2023-08-31T06:50:10;11.43;;;10.40;;
6207;SDS011;3137;51.550;7.060;2023-08-31T06:52:37;14.90;;;10.87;;
6207;SDS011;3137;51.550;7.060;2023-08-31T06:55:03;11.63;;;10.87;;
6207;SDS011;3137;51.550;7.060;2023-08-31T06:57:32;13.97;;;9.80;;
6207;SDS011;3137;51.550;7.060;2023-08-31T06:59:58;13.63;;;9.17;;
6207;SDS011;3137;51.550;7.060;2023-08-31T07:02:28;16.07;;;10.33;;
6207;SDS011;3137;51.550;7.060;2023-08-31T07:04:54;10.37;;;9.33;;
6207;SDS011;3137;51.550;7.060;2023-08-31T07:07:21;11.33;;;9.30;;
6207;SDS011;3137;51.550;7.060;2023-08-31T07:09:47;10.97;;;8.50;;
6207;SDS011;3137;51.550;7.060;2023-08-31T07:12:14;10.97;;;8.60;;
6207;SDS011;3137;51.550;7.060;2023-08-31T07:14:41;10.17;;;8.00;;
6207;SDS011;3137;51.550;7.060;2023-08-31T07:17:08;9.90;;;7.13;;
6207;SDS011;3137;51.550;7.060;2023-08-31T07:19:35;9.70;;;8.17;;
6207;SDS011;3137;51.550;7.060;2023-08-31T07:22:02;15.47;;;7.53;;
6207;SDS011;3137;51.550;7.060;2023-08-31T07:24:30;8.87;;;8.00;;
6207;SDS011;3137;51.550;7.060;2023-08-31T07:26:56;8.30;;;7.37;;
6207;SDS011;3137;51.550;7.060;2023-08-31T07:29:23;8.90;;;6.93;;
6207;SDS011;3137;51.550;7.060;2023-08-31T07:31:49;7.40;;;6.90;;
6207;SDS011;3137;51.550;7.060;2023-08-31T07:34:15;9.80;;;7.23;;
6207;SDS011;3137;51.550;7.060;2023-08-31T07:36:42;7.37;;;6.97;;
6207;SDS011;3137;51.550;7.060;2023-08-31T07:39:09;8.07;;;6.67;;
6207;SDS011;3137;51.550;7.060;2023-08-31T07:41:36;7.10;;;6.67;;
6207;SDS011;3137;51.550;7.060;2023-08-31T07:44:02;10.43;;;6.63;;
6207;SDS011;3137;51.550;7.060;2023-08-31T07:46:30;7.70;;;6.83;;
6207;SDS011;3137;51.550;7.060;2023-08-31T07:48:57;10.87;;;6.23;;
6207;SDS011;3137;51.550;7.060;2023-08-31T07:51:24;7.07;;;5.87;;
6207;SDS011;3137;51.550;7.060;2023-08-31T07:53:52;7.33;;;6.90;;
6207;SDS011;3137;51.550;7.060;2023-08-31T07:56:18;12.37;;;7.10;;
6207;SDS011;3137;51.550;7.060;2023-08-31T07:58:45;8.30;;;6.57;;
6207;SDS011;3137;51.550;7.060;2023-08-31T08:01:11;6.90;;;6.27;;
6207;SDS011;3137;51.550;7.060;2023-08-31T08:03:38;7.50;;;6.90;;
6207;SDS011;3137;51.550;7.060;2023-08-31T08:06:04;7.27;;;6.77;;
6207;SDS011;3137;51.550;7.060;2023-08-31T08:08:31;12.43;;;6.23;;
6207;SDS011;3137;51.550;7.060;2023-08-31T08:10:57;6.80;;;6.23;;
6207;SDS011;3137;51.550;7.060;2023-08-31T08:13:24;7.70;;;5.53;;
6207;SDS011;3137;51.550;7.060;2023-08-31T08:15:50;5.23;;;5.10;;
6207;SDS011;3137;51.550;7.060;2023-08-31T08:18:17;6.07;;;5.03;;
6207;SDS011;3137;51.550;7.060;2023-08-31T08:20:46;5.20;;;4.90;;
6207;SDS011;3137;51.550;7.060;2023-08-31T08:23:14;6.57;;;6.20;;
6207;SDS011;3137;51.550;7.060;2023-08-31T08:25:40;5.07;;;4.60;;
6207;SDS011;3137;51.550;7.060;2023-08-31T08:28:07;6.83;;;4.93;;
6207;SDS011;3137;51.550;7.060;2023-08-31T08:30:34;3.90;;;3.80;;
6207;SDS011;3137;51.550;7.060;2023-08-31T08:33:00;5.17;;;4.53;;
6207;SDS011;3137;51.550;7.060;2023-08-31T08:35:27;5.90;;;3.70;;
6207;SDS011;3137;51.550;7.060;2023-08-31T08:37:53;5.40;;;5.00;;
6207;SDS011;3137;51.550;7.060;2023-08-31T08:40:19;4.77;;;4.53;;
6207;SDS011;3137;51.550;7.060;2023-08-31T08:42:46;4.53;;;4.43;;
6207;SDS011;3137;51.550;7.060;2023-08-31T08:45:14;13.93;;;4.47;;
6207;SDS011;3137;51.550;7.060;2023-08-31T08:47:42;8.43;;;4.17;;
6207;SDS011;3137;51.550;7.060;2023-08-31T08:50:12;4.70;;;4.70;;
6207;SDS011;3137;51.550;7.060;2023-08-31T08:52:39;5.43;;;5.00;;
6207;SDS011;3137;51.550;7.060;2023-08-31T08:55:07;5.23;;;5.03;;
6207;SDS011;3137;51.550;7.060;2023-08-31T08:57:34;6.83;;;5.67;;
6207;SDS011;3137;51.550;7.060;2023-08-31T09:00:02;5.53;;;5.30;;
6207;SDS011;3137;51.550;7.060;2023-08-31T09:02:29;11.43;;;5.27;;
6207;SDS011;3137;51.550;7.060;2023-08-31T09:04:56;6.97;;;5.80;;
6207;SDS011;3137;51.550;7.060;2023-08-31T09:07:23;4.53;;;4.43;;
6207;SDS011;3137;51.550;7.060;2023-08-31T09:09:51;9.50;;;5.53;;
6207;SDS011;3137;51.550;7.060;2023-08-31T09:12:18;11.73;;;4.90;;
6207;SDS011;3137;51.550;7.060;2023-08-31T09:14:59;4.80;;;4.60;;
6207;SDS011;3137;51.550;7.060;2023-08-31T09:17:25;5.40;;;5.07;;
6207;SDS011;3137;51.550;7.060;2023-08-31T09:19:58;6.47;;;5.80;;
6207;SDS011;3137;51.550;7.060;2023-08-31T09:22:27;5.53;;;5.17;;
6207;SDS011;3137;51.550;7.060;2023-08-31T09:24:53;5.47;;;5.10;;
6207;SDS011;3137;51.550;7.060;2023-08-31T09:27:20;5.27;;;4.87;;
6207;SDS011;3137;51.550;7.060;2023-08-31T09:29:46;6.40;;;6.07;;
6207;SDS011;3137;51.550;7.060;2023-08-31T09:32:17;5.37;;;5.03;;
6207;SDS011;3137;51.550;7.060;2023-08-31T09:34:44;6.60;;;6.20;;
6207;SDS011;3137;51.550;7.060;2023-08-31T09:37:11;6.13;;;5.80;;
6207;SDS011;3137;51.550;7.060;2023-08-31T09:39:40;7.83;;;5.70;;
6207;SDS011;3137;51.550;7.060;2023-08-31T09:42:08;6.40;;;5.93;;
6207;SDS011;3137;51.550;7.060;2023-08-31T09:44:39;5.73;;;5.43;;
6207;SDS011;3137;51.550;7.060;2023-08-31T09:47:07;6.70;;;6.10;;
6207;SDS011;3137;51.550;7.060;2023-08-31T09:49:34;6.13;;;5.83;;
6207;SDS011;3137;51.550;7.060;2023-08-31T09:52:03;5.03;;;4.93;;
6207;SDS011;3137;51.550;7.060;2023-08-31T09:54:31;6.00;;;5.80;;
6207;SDS011;3137;51.550;7.060;2023-08-31T09:56:59;5.40;;;5.20;;
6207;SDS011;3137;51.550;7.060;2023-08-31T09:59:29;5.33;;;5.13;;
6207;SDS011;3137;51.550;7.060;2023-08-31T10:01:55;6.37;;;5.83;;
6207;SDS011;3137;51.550;7.060;2023-08-31T10:04:23;5.03;;;4.87;;
6207;SDS011;3137;51.550;7.060;2023-08-31T10:06:49;6.37;;;5.93;;
6207;SDS011;3137;51.550;7.060;2023-08-31T10:09:17;4.97;;;4.70;;
6207;SDS011;3137;51.550;7.060;2023-08-31T10:11:44;4.93;;;4.53;;
6207;SDS011;3137;51.550;7.060;2023-08-31T10:14:11;4.03;;;3.90;;
6207;SDS011;3137;51.550;7.060;2023-08-31T10:16:39;4.10;;;3.90;;
6207;SDS011;3137;51.550;7.060;2023-08-31T10:19:09;4.20;;;3.90;;
6207;SDS011;3137;51.550;7.060;2023-08-31T10:21:35;3.80;;;3.50;;
6207;SDS011;3137;51.550;7.060;2023-08-31T10:24:03;5.90;;;3.57;;
6207;SDS011;3137;51.550;7.060;2023-08-31T10:26:31;3.00;;;3.00;;
6207;SDS011;3137;51.550;7.060;2023-08-31T10:28:58;3.93;;;3.83;;
6207;SDS011;3137;51.550;7.060;2023-08-31T10:31:29;2.93;;;2.73;;
6207;SDS011;3137;51.550;7.060;2023-08-31T10:34:00;4.57;;;2.93;;
6207;SDS011;3137;51.550;7.060;2023-08-31T10:36:34;3.43;;;3.33;;
6207;SDS011;3137;51.550;7.060;2023-08-31T10:39:10;3.13;;;2.90;;
6207;SDS011;3137;51.550;7.060;2023-08-31T10:41:42;3.00;;;3.00;;
6207;SDS011;3137;51.550;7.060;2023-08-31T10:44:18;3.13;;;2.93;;
6207;SDS011;3137;51.550;7.060;2023-08-31T10:46:51;3.70;;;2.73;;
6207;SDS011;3137;51.550;7.060;2023-08-31T10:49:19;2.67;;;2.67;;
6207;SDS011;3137;51.550;7.060;2023-08-31T10:51:48;2.33;;;2.33;;
6207;SDS011;3137;51.550;7.060;2023-08-31T10:54:20;3.77;;;2.87;;
6207;SDS011;3137;51.550;7.060;2023-08-31T10:59:22;2.27;;;2.17;;
6207;SDS011;3137;51.550;7.060;2023-08-31T11:01:51;2.30;;;2.30;;
6207;SDS011;3137;51.550;7.060;2023-08-31T11:04:17;5.10;;;2.57;;
6207;SDS011;3137;51.550;7.060;2023-08-31T11:06:44;4.13;;;2.67;;
6207;SDS011;3137;51.550;7.060;2023-08-31T11:09:28;3.33;;;2.70;;
6207;SDS011;3137;51.550;7.060;2023-08-31T11:11:55;2.73;;;2.70;;
6207;SDS011;3137;51.550;7.060;2023-08-31T11:14:22;3.03;;;2.83;;
6207;SDS011;3137;51.550;7.060;2023-08-31T11:16:48;6.93;;;5.00;;
6207;SDS011;3137;51.550;7.060;2023-08-31T11:19:15;3.27;;;3.27;;
6207;SDS011;3137;51.550;7.060;2023-08-31T11:21:41;3.63;;;3.33;;
6207;SDS011;3137;51.550;7.060;2023-08-31T11:24:08;5.00;;;3.60;;
6207;SDS011;3137;51.550;7.060;2023-08-31T11:26:34;3.30;;;3.20;;
6207;SDS011;3137;51.550;7.060;2023-08-31T11:29:01;3.00;;;2.90;;
6207;SDS011;3137;51.550;7.060;2023-08-31T11:31:32;3.73;;;3.63;;
6207;SDS011;3137;51.550;7.060;2023-08-31T11:33:58;3.23;;;3.13;;
6207;SDS011;3137;51.550;7.060;2023-08-31T11:36:25;3.77;;;3.67;;
6207;SDS011;3137;51.550;7.060;2023-08-31T11:38:52;2.87;;;2.77;;
6207;SDS011;3137;51.550;7.060;2023-08-31T11:41:18;3.37;;;3.20;;
6207;SDS011;3137;51.550;7.060;2023-08-31T11:43:45;4.30;;;3.23;;
6207;SDS011;3137;51.550;7.060;2023-08-31T11:46:13;3.87;;;3.60;;
6207;SDS011;3137;51.550;7.060;2023-08-31T11:48:40;3.03;;;2.93;;
6207;SDS011;3137;51.550;7.060;2023-08-31T11:51:07;2.43;;;2.43;;
6207;SDS011;3137;51.550;7.060;2023-08-31T11:53:33;3.63;;;3.20;;
6207;SDS011;3137;51.550;7.060;2023-08-31T11:56:01;2.87;;;2.87;;
6207;SDS011;3137;51.550;7.060;2023-08-31T11:58:28;3.53;;;3.30;;
6207;SDS011;3137;51.550;7.060;2023-08-31T12:00:58;3.20;;;3.20;;
6207;SDS011;3137;51.550;7.060;2023-08-31T12:03:25;4.20;;;3.57;;
6207;SDS011;3137;51.550;7.060;2023-08-31T12:06:05;3.20;;;3.17;;
6207;SDS011;3137;51.550;7.060;2023-08-31T12:08:32;5.30;;;5.20;;
6207;SDS011;3137;51.550;7.060;2023-08-31T12:11:00;4.57;;;4.17;;
6207;SDS011;3137;51.550;7.060;2023-08-31T12:13:26;5.20;;;4.27;;
6207;SDS011;3137;51.550;7.060;2023-08-31T12:15:57;4.63;;;4.27;;
6207;SDS011;3137;51.550;7.060;2023-08-31T12:18:23;3.50;;;3.50;;
6207;SDS011;3137;51.550;7.060;2023-08-31T12:20:50;3.90;;;3.57;;
6207;SDS011;3137;51.550;7.060;2023-08-31T12:23:18;3.40;;;3.30;;
6207;SDS011;3137;51.550;7.060;2023-08-31T12:25:51;3.17;;;3.00;;
6207;SDS011;3137;51.550;7.060;2023-08-31T12:28:20;7.13;;;2.43;;
6207;SDS011;3137;51.550;7.060;2023-08-31T12:30:49;2.57;;;2.37;;
6207;SDS011;3137;51.550;7.060;2023-08-31T12:33:17;4.90;;;2.83;;
6207;SDS011;3137;51.550;7.060;2023-08-31T12:35:46;2.27;;;2.17;;
6207;SDS011;3137;51.550;7.060;2023-08-31T12:38:12;2.97;;;2.87;;
6207;SDS011;3137;51.550;7.060;2023-08-31T12:40:40;2.17;;;2.17;;
6207;SDS011;3137;51.550;7.060;2023-08-31T12:43:06;2.40;;;2.30;;
6207;SDS011;3137;51.550;7.060;2023-08-31T12:45:33;2.53;;;2.53;;
6207;SDS011;3137;51.550;7.060;2023-08-31T12:47:59;12.17;;;3.07;;
6207;SDS011;3137;51.550;7.060;2023-08-31T12:50:26;2.80;;;2.80;;
6207;SDS011;3137;51.550;7.060;2023-08-31T12:52:52;3.30;;;3.20;;
6207;SDS011;3137;51.550;7.060;2023-08-31T12:55:19;3.50;;;3.13;;
6207;SDS011;3137;51.550;7.060;2023-08-31T12:57:45;4.70;;;3.73;;
6207;SDS011;3137;51.550;7.060;2023-08-31T13:00:14;4.17;;;3.83;;
6207;SDS011;3137;51.550;7.060;2023-08-31T13:02:41;3.80;;;3.60;;
6207;SDS011;3137;51.550;7.060;2023-08-31T13:05:11;3.60;;;3.50;;
6207;SDS011;3137;51.550;7.060;2023-08-31T13:07:38;9.13;;;3.40;;
6207;SDS011;3137;51.550;7.060;2023-08-31T13:10:05;4.30;;;3.93;;
6207;SDS011;3137;51.550;7.060;2023-08-31T13:12:32;4.10;;;3.90;;
6207;SDS011;3137;51.550;7.060;2023-08-31T13:14:59;3.37;;;3.33;;
6207;SDS011;3137;51.550;7.060;2023-08-31T13:17:27;4.40;;;4.17;;
6207;SDS011;3137;51.550;7.060;2023-08-31T13:19:54;15.97;;;4.00;;
6207;SDS011;3137;51.550;7.060;2023-08-31T13:22:21;4.03;;;3.77;;
6207;SDS011;3137;51.550;7.060;2023-08-31T13:24:48;3.90;;;3.60;;
6207;SDS011;3137;51.550;7.060;2023-08-31T13:27:14;3.57;;;3.37;;
6207;SDS011;3137;51.550;7.060;2023-08-31T13:29:41;3.47;;;3.17;;
6207;SDS011;3137;51.550;7.060;2023-08-31T13:32:08;3.17;;;3.07;;
6207;SDS011;3137;51.550;7.060;2023-08-31T13:34:35;4.10;;;3.80;;
6207;SDS011;3137;51.550;7.060;2023-08-31T13:37:03;5.70;;;3.57;;
6207;SDS011;3137;51.550;7.060;2023-08-31T13:39:30;3.50;;;3.23;;
6207;SDS011;3137;51.550;7.060;2023-08-31T13:42:06;3.67;;;3.47;;
6207;SDS011;3137;51.550;7.060;2023-08-31T13:44:33;3.03;;;2.90;;
6207;SDS011;3137;51.550;7.060;2023-08-31T13:47:00;3.27;;;2.87;;
6207;SDS011;3137;51.550;7.060;2023-08-31T13:49:26;3.10;;;3.10;;
6207;SDS011;3137;51.550;7.060;2023-08-31T13:51:53;2.53;;;2.53;;
6207;SDS011;3137;51.550;7.060;2023-08-31T13:54:19;2.63;;;2.53;;
6207;SDS011;3137;51.550;7.060;2023-08-31T13:56:45;3.30;;;3.00;;
6207;SDS011;3137;51.550;7.060;2023-08-31T13:59:12;2.83;;;2.60;;
6207;SDS011;3137;51.550;7.060;2023-08-31T14:01:38;3.70;;;3.07;;
6207;SDS011;3137;51.550;7.060;2023-08-31T14:04:05;3.17;;;3.17;;
6207;SDS011;3137;51.550;7.060;2023-08-31T14:06:32;2.77;;;2.77;;
6207;SDS011;3137;51.550;7.060;2023-08-31T14:08:58;3.43;;;3.40;;
6207;SDS011;3137;51.550;7.060;2023-08-31T14:11:25;3.47;;;3.47;;
6207;SDS011;3137;51.550;7.060;2023-08-31T14:14:01;3.50;;;3.50;;
6207;SDS011;3137;51.550;7.060;2023-08-31T14:16:30;4.40;;;4.30;;
6207;SDS011;3137;51.550;7.060;2023-08-31T14:18:56;4.73;;;3.87;;
6207;SDS011;3137;51.550;7.060;2023-08-31T14:21:23;4.27;;;4.07;;
6207;SDS011;3137;51.550;7.060;2023-08-31T14:23:49;6.07;;;5.57;;
6207;SDS011;3137;51.550;7.060;2023-08-31T14:26:22;7.03;;;4.93;;
6207;SDS011;3137;51.550;7.060;2023-08-31T14:28:52;15.37;;;5.67;;
6207;SDS011;3137;51.550;7.060;2023-08-31T14:31:19;7.40;;;7.07;;
6207;SDS011;3137;51.550;7.060;2023-08-31T14:33:46;6.17;;;5.77;;
6207;SDS011;3137;51.550;7.060;2023-08-31T14:36:13;6.87;;;6.30;;
6207;SDS011;3137;51.550;7.060;2023-08-31T14:38:41;6.87;;;6.57;;
6207;SDS011;3137;51.550;7.060;2023-08-31T14:41:08;7.10;;;6.90;;
6207;SDS011;3137;51.550;7.060;2023-08-31T14:43:34;7.83;;;7.40;;
6207;SDS011;3137;51.550;7.060;2023-08-31T14:46:01;7.33;;;7.07;;
6207;SDS011;3137;51.550;7.060;2023-08-31T14:48:27;7.90;;;7.60;;
6207;SDS011;3137;51.550;7.060;2023-08-31T14:50:54;8.17;;;7.60;;
6207;SDS011;3137;51.550;7.060;2023-08-31T14:53:21;9.13;;;8.23;;
6207;SDS011;3137;51.550;7.060;2023-08-31T14:55:49;8.23;;;7.73;;
6207;SDS011;3137;51.550;7.060;2023-08-31T14:58:16;8.43;;;7.80;;
6207;SDS011;3137;51.550;7.060;2023-08-31T15:00:42;8.30;;;7.73;;
6207;SDS011;3137;51.550;7.060;2023-08-31T15:03:12;7.87;;;7.47;;
6207;SDS011;3137;51.550;7.060;2023-08-31T15:05:38;7.20;;;7.00;;
6207;SDS011;3137;51.550;7.060;2023-08-31T15:08:08;8.00;;;7.47;;
6207;SDS011;3137;51.550;7.060;2023-08-31T15:10:34;10.87;;;9.20;;
6207;SDS011;3137;51.550;7.060;2023-08-31T15:13:01;8.13;;;7.73;;
6207;SDS011;3137;51.550;7.060;2023-08-31T15:15:28;8.10;;;7.83;;